Sibbe, Netherlands
Current Conditions -  °F | °C
As of 1:25 PM on Monday 22 Dec 2014 (Local Time) from EHBK Reporting Station
Overcast Overcast  
Wind Chill: 40°   Ceiling: 1100
Heat Index: 48°   Visibility: 6mi
Dew Point: 45°   Wind: 29mph
Humidity: 87%   Direction: 220°SW
Pressure: 30.09"   Gusts: NA
Location:  50.84°N, 5.83°E
Report Text: EHBK 221225Z AUTO 22025KT 9999 OVC011 09/07 Q1019 TEMPO 7000-DZRA
Loading
Personal Weather Stations






























Interactive Weather Map New forecast layout! Learn more

10-Day Weather Forecast

Advertisements
Track Severe Weather on mobile